createdAt,value
2018-02-17T00:00:58.463Z,48.60
2018-02-17T00:03:25.930Z,48.60
2018-02-17T00:05:53.386Z,48.70
2018-02-17T00:08:20.891Z,48.70
2018-02-17T00:10:48.345Z,48.70
2018-02-17T00:13:15.829Z,49.40
2018-02-17T00:15:43.321Z,48.80
2018-02-17T00:18:10.778Z,48.80
2018-02-17T00:20:38.236Z,48.80
2018-02-17T00:23:05.694Z,48.80
2018-02-17T00:25:33.166Z,48.80
2018-02-17T00:28:01.394Z,48.80
2018-02-17T00:30:29.617Z,48.80
2018-02-17T00:32:57.073Z,48.80
2018-02-17T00:35:24.534Z,48.70
2018-02-17T00:37:51.992Z,48.80
2018-02-17T00:40:19.447Z,48.70
2018-02-17T00:42:46.902Z,48.60
2018-02-17T00:45:14.369Z,48.70
2018-02-17T00:47:41.821Z,48.80
2018-02-17T00:50:09.285Z,48.80
2018-02-17T00:52:36.737Z,48.90
2018-02-17T00:55:04.965Z,48.80
2018-02-17T00:57:32.426Z,48.80
2018-02-17T00:59:59.887Z,48.80
2018-02-17T01:02:27.344Z,48.90
2018-02-17T01:04:54.913Z,48.90
2018-02-17T01:07:22.400Z,48.90
2018-02-17T01:09:49.869Z,48.90
2018-02-17T01:12:17.334Z,48.90
2018-02-17T01:14:44.809Z,48.90
2018-02-17T01:17:13.042Z,49.00
2018-02-17T01:19:40.525Z,48.90
2018-02-17T01:22:07.981Z,49.00
2018-02-17T01:24:35.446Z,49.00
2018-02-17T01:27:02.919Z,49.00
2018-02-17T01:29:31.164Z,49.00
2018-02-17T01:31:58.635Z,48.90
2018-02-17T01:34:26.102Z,49.10
2018-02-17T01:36:53.565Z,49.00
2018-02-17T01:39:21.021Z,49.00
2018-02-17T01:41:48.532Z,49.10
2018-02-17T01:44:15.997Z,49.20
2018-02-17T01:46:43.470Z,49.10
2018-02-17T01:49:10.926Z,49.10
2018-02-17T01:51:38.409Z,49.10
2018-02-17T01:54:05.870Z,49.10
2018-02-17T01:56:33.334Z,49.10
2018-02-17T01:59:00.835Z,49.10
2018-02-17T02:01:28.302Z,49.10
2018-02-17T02:03:55.762Z,49.00
2018-02-17T02:06:23.247Z,49.10
2018-02-17T02:08:50.698Z,49.20
2018-02-17T02:11:18.157Z,49.10
2018-02-17T02:13:45.606Z,49.10
2018-02-17T02:16:13.071Z,49.10
2018-02-17T02:18:40.529Z,49.10
2018-02-17T02:21:07.993Z,49.20
2018-02-17T02:23:35.452Z,49.20
2018-02-17T02:26:02.923Z,49.20
2018-02-17T02:28:30.366Z,49.30
2018-02-17T02:30:57.851Z,49.30
2018-02-17T02:33:25.286Z,49.20
2018-02-17T02:35:52.767Z,49.30
2018-02-17T02:38:20.986Z,49.40
2018-02-17T02:40:48.442Z,49.40
2018-02-17T02:43:15.934Z,49.40
2018-02-17T02:45:43.381Z,49.30
2018-02-17T02:48:10.838Z,49.40
2018-02-17T02:50:38.300Z,49.50
2018-02-17T02:53:05.757Z,49.50
2018-02-17T02:55:33.228Z,49.40
2018-02-17T02:58:01.478Z,50.10
2018-02-17T03:00:28.964Z,49.40
2018-02-17T03:02:56.428Z,49.50
2018-02-17T03:05:23.883Z,49.50
2018-02-17T03:07:51.345Z,49.50
2018-02-17T03:10:18.801Z,49.40
2018-02-17T03:12:46.300Z,49.50
2018-02-17T03:15:13.765Z,49.50
2018-02-17T03:17:41.465Z,49.50
2018-02-17T03:20:08.913Z,49.70
2018-02-17T03:22:36.385Z,49.80
2018-02-17T03:25:03.842Z,49.80
2018-02-17T03:27:31.303Z,49.70
2018-02-17T03:29:58.763Z,49.70
2018-02-17T03:32:26.213Z,49.80
2018-02-17T03:34:53.669Z,49.80
2018-02-17T03:37:21.130Z,49.80
2018-02-17T03:39:48.568Z,49.60
2018-02-17T03:42:16.043Z,49.70
2018-02-17T03:44:43.491Z,49.70
2018-02-17T03:47:10.936Z,49.70
2018-02-17T03:49:38.394Z,49.70
2018-02-17T03:52:05.838Z,49.70
2018-02-17T03:54:33.303Z,49.80
2018-02-17T03:57:00.814Z,49.60
2018-02-17T03:59:29.029Z,49.70
2018-02-17T04:01:56.481Z,49.70
2018-02-17T04:04:23.943Z,49.70
2018-02-17T04:06:51.415Z,49.80
2018-02-17T04:09:18.874Z,49.60
2018-02-17T04:11:46.326Z,49.60
2018-02-17T04:14:14.547Z,50.00
2018-02-17T04:16:42.014Z,49.90
2018-02-17T04:19:09.493Z,49.90
2018-02-17T04:21:36.946Z,49.90
2018-02-17T04:24:04.401Z,49.90
2018-02-17T04:26:31.888Z,50.00
2018-02-17T04:28:59.351Z,50.10
2018-02-17T04:31:26.799Z,50.10
2018-02-17T04:33:55.026Z,50.10
2018-02-17T04:36:23.241Z,50.30
2018-02-17T04:38:50.713Z,50.30
2018-02-17T04:41:19.087Z,50.30
2018-02-17T04:43:46.941Z,50.80
2018-02-17T04:46:14.397Z,50.40
2018-02-17T04:48:47.722Z,50.40
2018-02-17T04:54:22.797Z,50.60
2018-02-17T04:56:55.846Z,50.60
2018-02-17T04:59:26.221Z,50.60
2018-02-17T05:01:58.255Z,50.80
2018-02-17T05:04:26.866Z,51.00
2018-02-17T05:09:56.994Z,50.80
2018-02-17T05:12:25.202Z,50.70
2018-02-17T05:18:00.900Z,50.80
2018-02-17T05:20:44.744Z,50.80
2018-02-17T05:23:18.521Z,50.90
2018-02-17T05:25:57.297Z,50.90
2018-02-17T05:31:29.736Z,50.80
2018-02-17T05:34:12.070Z,50.90
2018-02-17T05:36:39.525Z,50.90
2018-02-17T05:39:06.983Z,51.00
2018-02-17T05:44:53.689Z,50.90
2018-02-17T05:47:23.913Z,51.00
2018-02-17T05:50:06.249Z,51.10
2018-02-17T05:52:33.708Z,51.00
2018-02-17T05:55:01.165Z,51.10
2018-02-17T05:57:28.629Z,51.10
2018-02-17T05:59:56.128Z,51.20
2018-02-17T06:02:23.602Z,51.20
2018-02-17T06:04:51.084Z,51.00
2018-02-17T06:07:19.395Z,51.40
2018-02-17T06:09:46.890Z,51.00
2018-02-17T06:12:14.375Z,51.00
2018-02-17T06:14:41.912Z,50.90
2018-02-17T06:17:09.390Z,50.90
2018-02-17T06:19:36.876Z,51.00
2018-02-17T06:22:05.146Z,50.80
2018-02-17T06:24:32.645Z,50.80
2018-02-17T06:27:00.142Z,50.80
2018-02-17T06:29:27.629Z,50.70
2018-02-17T06:31:55.932Z,50.70
2018-02-17T06:34:24.178Z,50.70
2018-02-17T06:36:51.714Z,50.70
2018-02-17T06:39:19.182Z,50.80
2018-02-17T06:41:46.679Z,50.80
2018-02-17T06:44:14.193Z,50.70
2018-02-17T06:46:42.458Z,50.90
2018-02-17T06:49:09.938Z,50.80
2018-02-17T06:51:38.206Z,50.80
2018-02-17T06:54:05.714Z,50.80
2018-02-17T06:56:33.238Z,50.70
2018-02-17T06:59:00.734Z,50.70
2018-02-17T07:01:28.221Z,50.60
2018-02-17T07:03:56.470Z,50.70
2018-02-17T07:06:23.954Z,50.70
2018-02-17T07:08:52.199Z,50.70
2018-02-17T07:11:19.721Z,50.70
2018-02-17T07:13:47.226Z,50.60
2018-02-17T07:16:14.735Z,50.60
2018-02-17T07:18:42.307Z,50.50
2018-02-17T07:21:09.830Z,50.60
2018-02-17T07:23:37.318Z,50.60
2018-02-17T07:26:04.786Z,50.70
2018-02-17T07:28:32.267Z,50.60
2018-02-17T07:30:59.758Z,50.40
2018-02-17T07:33:27.277Z,50.50
2018-02-17T07:35:55.512Z,50.60
2018-02-17T07:38:23.130Z,50.60
2018-02-17T07:40:50.598Z,50.60
2018-02-17T07:43:18.924Z,50.50
2018-02-17T07:45:46.479Z,50.50
2018-02-17T07:48:13.934Z,50.50
2018-02-17T07:50:42.190Z,50.50
2018-02-17T07:53:09.670Z,50.50
2018-02-17T07:55:37.159Z,50.50
2018-02-17T07:58:05.398Z,50.30
2018-02-17T08:00:32.891Z,50.30
2018-02-17T08:03:00.371Z,50.20
2018-02-17T08:05:28.646Z,50.20
2018-02-17T08:07:56.144Z,50.20
2018-02-17T08:10:24.486Z,50.20
2018-02-17T08:12:51.983Z,50.20
2018-02-17T08:15:20.232Z,50.10
2018-02-17T08:17:47.711Z,50.10
2018-02-17T08:20:15.206Z,50.10
2018-02-17T08:22:42.693Z,50.00
2018-02-17T08:25:10.222Z,50.10
2018-02-17T08:27:37.727Z,50.00
2018-02-17T08:30:05.292Z,49.90
2018-02-17T08:32:32.748Z,49.90
2018-02-17T08:35:00.246Z,49.90
2018-02-17T08:37:27.742Z,50.00
2018-02-17T08:39:55.996Z,50.00
2018-02-17T08:42:23.487Z,50.00
2018-02-17T08:44:51.755Z,50.00
2018-02-17T08:47:19.238Z,49.90
2018-02-17T08:49:47.518Z,49.80
2018-02-17T08:52:14.982Z,49.80
2018-02-17T08:54:42.447Z,50.00
2018-02-17T08:57:09.942Z,50.00
2018-02-17T08:59:38.214Z,49.80
2018-02-17T09:02:05.730Z,49.80
2018-02-17T09:04:33.242Z,49.60
2018-02-17T09:07:00.735Z,49.50
2018-02-17T09:09:28.994Z,49.60
2018-02-17T09:11:56.471Z,49.60
2018-02-17T09:14:23.990Z,49.60
2018-02-17T09:16:52.252Z,49.70
2018-02-17T09:19:19.771Z,49.60
2018-02-17T09:21:47.266Z,49.80
2018-02-17T09:24:14.784Z,49.70
2018-02-17T09:26:43.058Z,49.60
2018-02-17T09:29:10.533Z,49.60
2018-02-17T09:31:38.791Z,49.50
2018-02-17T09:34:06.273Z,49.50
2018-02-17T09:36:33.900Z,49.50
2018-02-17T09:39:01.386Z,49.40
2018-02-17T09:41:28.920Z,49.30
2018-02-17T09:43:57.174Z,49.20
2018-02-17T09:46:24.667Z,49.20
2018-02-17T09:48:52.915Z,49.20
2018-02-17T09:51:20.406Z,49.20
2018-02-17T09:53:47.879Z,49.20
2018-02-17T09:56:15.598Z,49.10
2018-02-17T09:58:43.833Z,49.10
2018-02-17T10:01:11.324Z,48.90
2018-02-17T10:03:38.806Z,48.90
2018-02-17T10:06:07.038Z,48.90
2018-02-17T10:08:34.559Z,48.80
2018-02-17T10:11:02.816Z,48.90
2018-02-17T10:13:30.320Z,48.80
2018-02-17T10:15:58.553Z,49.00
2018-02-17T10:18:26.050Z,48.80
2018-02-17T10:20:53.515Z,48.90
2018-02-17T10:23:21.017Z,48.70
2018-02-17T10:25:48.522Z,48.50
2018-02-17T10:28:16.029Z,48.30
2018-02-17T10:30:43.509Z,48.20
2018-02-17T10:33:10.994Z,48.20
2018-02-17T10:35:38.458Z,48.20
2018-02-17T10:38:05.965Z,47.90
2018-02-17T10:40:33.450Z,47.70
2018-02-17T10:43:00.922Z,47.30
2018-02-17T10:45:28.410Z,46.80
2018-02-17T10:47:55.878Z,45.90
2018-02-17T10:50:23.351Z,45.60
2018-02-17T10:52:50.925Z,45.70
2018-02-17T10:55:18.438Z,45.70
2018-02-17T10:57:46.747Z,46.40
2018-02-17T11:00:14.236Z,45.80
2018-02-17T11:02:41.730Z,45.70
2018-02-17T11:05:09.264Z,45.30
2018-02-17T11:07:36.754Z,45.00
2018-02-17T11:10:04.251Z,45.10
2018-02-17T11:12:31.767Z,45.30
2018-02-17T11:14:59.283Z,45.40
2018-02-17T11:17:26.810Z,45.40
2018-02-17T11:19:54.295Z,45.60
2018-02-17T11:22:21.825Z,45.70
2018-02-17T11:24:50.077Z,45.70
2018-02-17T11:27:17.546Z,45.60
2018-02-17T11:29:45.089Z,45.60
2018-02-17T11:32:13.316Z,46.00
2018-02-17T11:34:40.804Z,46.00
2018-02-17T11:37:08.289Z,46.00
2018-02-17T11:39:36.579Z,46.30
2018-02-17T11:42:04.051Z,46.30
2018-02-17T11:44:31.525Z,46.40
2018-02-17T11:46:59.798Z,46.40
2018-02-17T11:49:27.325Z,46.40
2018-02-17T11:51:54.844Z,46.40
2018-02-17T11:54:22.321Z,46.40
2018-02-17T11:56:50.614Z,46.30
2018-02-17T11:59:18.896Z,46.80
2018-02-17T12:01:46.362Z,46.20
2018-02-17T12:04:13.924Z,46.20
2018-02-17T12:06:41.356Z,46.00
2018-02-17T12:09:08.879Z,46.00
2018-02-17T12:11:36.371Z,46.00
2018-02-17T12:14:03.846Z,46.00
2018-02-17T12:16:31.334Z,45.90
2018-02-17T12:18:58.850Z,46.10
2018-02-17T12:21:26.324Z,46.10
2018-02-17T12:23:53.833Z,46.10
2018-02-17T12:26:21.354Z,45.90
2018-02-17T12:28:48.826Z,45.90
2018-02-17T12:31:16.306Z,45.60
2018-02-17T12:33:43.816Z,44.90
2018-02-17T12:36:11.339Z,44.40
2018-02-17T12:38:38.837Z,44.50
2018-02-17T12:41:06.319Z,44.40
2018-02-17T12:43:33.779Z,44.20
2018-02-17T12:46:01.267Z,44.20
2018-02-17T12:48:28.764Z,43.90
2018-02-17T12:50:56.271Z,43.60
2018-02-17T12:53:23.827Z,43.40
2018-02-17T12:55:51.266Z,43.20
2018-02-17T12:58:18.749Z,43.20
2018-02-17T13:00:46.248Z,42.70
2018-02-17T13:03:13.716Z,42.10
2018-02-17T13:05:41.206Z,41.70
2018-02-17T13:08:09.511Z,40.00
2018-02-17T13:10:36.996Z,40.00
2018-02-17T13:13:04.498Z,40.10
2018-02-17T13:15:32.014Z,39.80
2018-02-17T13:18:00.617Z,38.30
2018-02-17T13:20:28.111Z,38.20
2018-02-17T13:22:55.613Z,37.70
2018-02-17T13:25:23.111Z,37.40
2018-02-17T13:27:51.370Z,35.90
2018-02-17T13:30:18.842Z,35.80
2018-02-17T13:32:46.354Z,35.50
2018-02-17T13:35:13.954Z,35.20
2018-02-17T13:37:41.431Z,34.60
2018-02-17T13:40:08.918Z,34.20
2018-02-17T13:42:36.413Z,34.00
2018-02-17T13:45:03.968Z,33.90
2018-02-17T13:47:32.280Z,34.10
2018-02-17T13:50:00.563Z,34.80
2018-02-17T13:52:28.055Z,34.80
2018-02-17T13:54:55.550Z,35.30
2018-02-17T13:57:23.058Z,35.30
2018-02-17T13:59:50.531Z,35.40
2018-02-17T14:02:18.015Z,35.50
2018-02-17T14:04:46.262Z,35.50
2018-02-17T14:07:13.759Z,35.50
2018-02-17T14:09:41.237Z,35.40
2018-02-17T14:12:08.773Z,35.30
2018-02-17T14:14:36.262Z,35.20
2018-02-17T14:17:03.797Z,35.20
2018-02-17T14:19:31.314Z,35.40
2018-02-17T14:21:58.805Z,35.80
2018-02-17T14:24:27.130Z,36.60
2018-02-17T14:26:54.623Z,36.60
2018-02-17T14:29:22.170Z,37.10
2018-02-17T14:31:49.719Z,37.50
2018-02-17T14:34:17.994Z,37.90
2018-02-17T14:36:46.248Z,38.00
2018-02-17T14:39:13.758Z,37.90
2018-02-17T14:41:42.036Z,37.70
2018-02-17T14:44:10.281Z,37.70
2018-02-17T14:46:37.819Z,37.60
2018-02-17T14:49:06.082Z,38.20
2018-02-17T14:51:33.580Z,38.20
2018-02-17T14:54:01.083Z,38.50
2018-02-17T14:56:28.578Z,38.60
2018-02-17T14:58:56.075Z,39.60
2018-02-17T15:01:24.339Z,39.70
2018-02-17T15:03:51.866Z,39.70
2018-02-17T15:06:19.345Z,40.50
2018-02-17T15:08:46.849Z,39.70
2018-02-17T15:11:14.325Z,39.60
2018-02-17T15:13:41.814Z,39.50
2018-02-17T15:16:10.078Z,40.00
2018-02-17T15:18:37.572Z,40.00
2018-02-17T15:21:05.954Z,40.60
2018-02-17T15:23:33.456Z,40.60
2018-02-17T15:26:00.951Z,40.70
2018-02-17T15:28:28.443Z,40.90
2018-02-17T15:30:55.942Z,41.00
2018-02-17T15:33:23.427Z,41.30
2018-02-17T15:35:51.666Z,41.60
2018-02-17T15:38:19.262Z,41.60
2018-02-17T15:40:46.734Z,41.80
2018-02-17T15:43:14.247Z,41.90
2018-02-17T15:45:41.787Z,42.00
2018-02-17T15:48:10.064Z,42.50
2018-02-17T15:50:37.535Z,42.50
2018-02-17T15:53:05.057Z,42.70
2018-02-17T15:55:32.558Z,42.80
2018-02-17T15:58:00.040Z,43.00
2018-02-17T16:00:27.569Z,43.20
2018-02-17T16:02:55.078Z,43.30
2018-02-17T16:05:22.574Z,43.40
2018-02-17T16:07:50.831Z,43.80
2018-02-17T16:10:18.336Z,43.80
2018-02-17T16:12:46.598Z,44.10
2018-02-17T16:15:14.082Z,44.10
2018-02-17T16:17:42.371Z,44.30
2018-02-17T16:20:09.882Z,44.30
2018-02-17T16:22:37.376Z,44.50
2018-02-17T16:25:04.859Z,44.60
2018-02-17T16:27:32.436Z,44.70
2018-02-17T16:29:59.909Z,44.80
2018-02-17T16:32:27.396Z,44.90
2018-02-17T16:34:54.868Z,45.10
2018-02-17T16:37:22.373Z,45.00
2018-02-17T16:39:49.874Z,45.20
2018-02-17T16:42:17.370Z,45.30
2018-02-17T16:44:44.871Z,45.50
2018-02-17T16:47:12.386Z,45.60
2018-02-17T16:49:39.915Z,45.60
2018-02-17T16:52:07.415Z,45.70
2018-02-17T16:54:34.910Z,45.80
2018-02-17T16:57:02.494Z,45.80
2018-02-17T16:59:30.008Z,46.00
2018-02-17T17:01:57.531Z,46.00
2018-02-17T17:04:25.050Z,46.00
2018-02-17T17:06:52.534Z,46.00
2018-02-17T17:09:20.066Z,46.00
2018-02-17T17:11:48.418Z,46.10
2018-02-17T17:14:15.898Z,46.10
2018-02-17T17:16:43.416Z,46.20
2018-02-17T17:19:10.912Z,46.20
2018-02-17T17:21:38.443Z,46.30
2018-02-17T17:24:06.707Z,46.30
2018-02-17T17:26:34.192Z,46.30
2018-02-17T17:29:01.782Z,46.30
2018-02-17T17:31:29.311Z,46.30
2018-02-17T17:33:56.830Z,46.40
2018-02-17T17:36:24.332Z,46.40
2018-02-17T17:38:51.810Z,46.50
2018-02-17T17:41:19.312Z,46.50
2018-02-17T17:43:46.822Z,46.50
2018-02-17T17:46:14.302Z,46.60
2018-02-17T17:48:41.850Z,46.40
2018-02-17T17:51:10.096Z,46.50
2018-02-17T17:53:37.599Z,46.50
2018-02-17T17:56:05.879Z,46.50
2018-02-17T17:58:34.140Z,46.50
2018-02-17T18:01:01.664Z,46.50
2018-02-17T18:03:29.150Z,46.60
2018-02-17T18:05:56.632Z,46.60
2018-02-17T18:08:24.146Z,46.60
2018-02-17T18:10:51.682Z,46.60
2018-02-17T18:13:19.208Z,46.60
2018-02-17T18:15:47.482Z,46.60
2018-02-17T18:18:15.767Z,46.60
2018-02-17T18:20:43.274Z,46.60
2018-02-17T18:23:10.780Z,46.60
2018-02-17T18:25:38.309Z,46.60
2018-02-17T18:28:05.838Z,46.70
2018-02-17T18:30:33.319Z,46.70
2018-02-17T18:33:00.821Z,46.80
2018-02-17T18:35:28.340Z,46.80
2018-02-17T18:37:55.813Z,46.80
2018-02-17T18:40:23.404Z,46.90
2018-02-17T18:42:51.675Z,46.80
2018-02-17T18:45:19.191Z,46.80
2018-02-17T18:47:46.666Z,46.80
2018-02-17T18:50:14.186Z,46.80
2018-02-17T18:52:41.666Z,46.80
2018-02-17T18:55:09.177Z,46.90
2018-02-17T18:57:36.672Z,46.90
2018-02-17T19:00:04.195Z,46.90
2018-02-17T19:02:32.430Z,46.90
2018-02-17T19:04:59.972Z,46.90
2018-02-17T19:07:27.463Z,47.00
2018-02-17T19:09:54.998Z,47.00
2018-02-17T19:12:23.299Z,47.00
2018-02-17T19:14:50.802Z,47.00
2018-02-17T19:17:18.352Z,47.00
2018-02-17T19:19:45.874Z,47.00
2018-02-17T19:22:13.361Z,47.00
2018-02-17T19:24:40.854Z,47.00
2018-02-17T19:27:08.350Z,47.00
2018-02-17T19:29:35.866Z,47.10
2018-02-17T19:32:03.351Z,47.10
2018-02-17T19:34:31.615Z,47.00
2018-02-17T19:36:59.186Z,47.00
2018-02-17T19:39:27.471Z,47.10
2018-02-17T19:41:54.987Z,47.10
2018-02-17T19:44:23.254Z,47.10
2018-02-17T19:46:50.760Z,47.10
2018-02-17T19:49:18.263Z,47.10
2018-02-17T19:51:45.771Z,47.20
2018-02-17T19:54:14.033Z,47.20
2018-02-17T19:56:41.532Z,47.20
2018-02-17T19:59:09.794Z,47.50
2018-02-17T20:01:37.310Z,47.20
2018-02-17T20:04:04.845Z,47.20
2018-02-17T20:06:32.349Z,47.20
2018-02-17T20:09:00.680Z,47.20
2018-02-17T20:11:28.166Z,47.20
2018-02-17T20:13:55.695Z,47.30
2018-02-17T20:16:23.167Z,47.30
2018-02-17T20:18:50.642Z,47.20
2018-02-17T20:21:18.155Z,47.30
2018-02-17T20:23:45.699Z,47.40
2018-02-17T20:26:13.147Z,47.40
2018-02-17T20:28:40.647Z,47.30
2018-02-17T20:31:08.181Z,47.30
2018-02-17T20:33:35.733Z,47.30
2018-02-17T20:36:03.258Z,47.30
2018-02-17T20:38:30.784Z,47.30
2018-02-17T20:40:59.060Z,47.20
2018-02-17T20:43:27.367Z,47.20
2018-02-17T20:45:54.803Z,47.20
2018-02-17T20:48:22.298Z,47.30
2018-02-17T20:50:50.579Z,47.20
2018-02-17T20:53:18.859Z,47.40
2018-02-17T20:55:47.119Z,47.40
2018-02-17T20:58:14.697Z,47.40
2018-02-17T21:00:42.178Z,47.40
2018-02-17T21:03:09.728Z,47.40
2018-02-17T21:05:37.260Z,47.40
2018-02-17T21:08:05.548Z,47.40
2018-02-17T21:10:33.085Z,47.40
2018-02-17T21:13:00.608Z,47.40
2018-02-17T21:15:28.087Z,47.40
2018-02-17T21:17:55.607Z,47.40
2018-02-17T21:20:23.106Z,47.40
2018-02-17T21:22:50.598Z,47.40
2018-02-17T21:25:18.065Z,47.50
2018-02-17T21:27:45.577Z,47.50
2018-02-17T21:30:13.814Z,47.50
2018-02-17T21:32:41.294Z,47.50
2018-02-17T21:35:08.799Z,47.50
2018-02-17T21:37:36.322Z,48.10
2018-02-17T21:40:03.831Z,47.50
2018-02-17T21:42:31.317Z,47.50
2018-02-17T21:44:58.837Z,47.60
2018-02-17T21:47:26.334Z,47.50
2018-02-17T21:49:54.496Z,47.50
2018-02-17T21:52:21.982Z,47.50
2018-02-17T21:54:49.480Z,47.50
2018-02-17T21:57:16.992Z,47.60
2018-02-17T21:59:44.495Z,47.60
2018-02-17T22:02:12.007Z,47.60
2018-02-17T22:04:39.485Z,47.60
2018-02-17T22:07:07.734Z,47.70
2018-02-17T22:09:35.251Z,47.70
2018-02-17T22:12:03.524Z,47.60
2018-02-17T22:14:31.804Z,47.60
2018-02-17T22:16:59.307Z,47.60
2018-02-17T22:19:26.802Z,47.60
2018-02-17T22:21:54.318Z,47.70
2018-02-17T22:24:21.838Z,47.70
2018-02-17T22:26:49.342Z,47.60
2018-02-17T22:29:16.858Z,47.70
2018-02-17T22:31:45.127Z,47.80
2018-02-17T22:34:12.635Z,47.80
2018-02-17T22:36:40.181Z,47.80
2018-02-17T22:39:08.468Z,47.90
2018-02-17T22:41:36.736Z,47.90
2018-02-17T22:44:04.250Z,47.90
2018-02-17T22:46:31.768Z,47.80
2018-02-17T22:48:59.795Z,47.80
2018-02-17T22:51:27.306Z,47.80
2018-02-17T22:53:54.802Z,47.80
2018-02-17T22:56:22.304Z,47.80
2018-02-17T22:58:50.554Z,47.80
2018-02-17T23:01:18.058Z,47.80
2018-02-17T23:03:46.304Z,48.00
2018-02-17T23:06:13.897Z,47.90
2018-02-17T23:08:42.151Z,48.40
2018-02-17T23:11:09.710Z,48.00
2018-02-17T23:13:37.198Z,47.90
2018-02-17T23:16:04.788Z,48.00
2018-02-17T23:18:32.319Z,48.00
2018-02-17T23:20:59.818Z,48.60
2018-02-17T23:23:27.297Z,48.10
2018-02-17T23:25:54.810Z,48.10
2018-02-17T23:28:23.069Z,48.10
2018-02-17T23:30:50.588Z,48.10
2018-02-17T23:33:18.893Z,48.20
2018-02-17T23:35:46.354Z,48.20
2018-02-17T23:38:13.867Z,48.10
2018-02-17T23:40:42.168Z,48.10
2018-02-17T23:43:09.655Z,48.00
2018-02-17T23:45:37.931Z,48.00
2018-02-17T23:48:06.202Z,48.10
2018-02-17T23:50:33.698Z,48.10
2018-02-17T23:53:02.016Z,48.10
2018-02-17T23:55:29.509Z,48.00
2018-02-17T23:57:57.013Z,48.00
